sensor_id;sensor_type;location;lat;lon;timestamp;P1;durP1;ratioP1;P2;durP2;ratioP2
24337;SDS011;12457;50.832;4.346;2023-05-18T00:02:01;14.88;;;3.20;;
24337;SDS011;12457;50.832;4.346;2023-05-18T00:04:34;10.60;;;3.05;;
24337;SDS011;12457;50.832;4.346;2023-05-18T00:07:12;13.30;;;3.03;;
24337;SDS011;12457;50.832;4.346;2023-05-18T00:09:40;15.43;;;3.05;;
24337;SDS011;12457;50.832;4.346;2023-05-18T00:12:06;17.38;;;3.15;;
24337;SDS011;12457;50.832;4.346;2023-05-18T00:14:33;10.63;;;2.90;;
24337;SDS011;12457;50.832;4.346;2023-05-18T00:17:00;15.52;;;3.42;;
24337;SDS011;12457;50.832;4.346;2023-05-18T00:19:27;10.65;;;2.83;;
24337;SDS011;12457;50.832;4.346;2023-05-18T00:21:55;11.35;;;3.15;;
24337;SDS011;12457;50.832;4.346;2023-05-18T00:24:23;11.35;;;2.70;;
24337;SDS011;12457;50.832;4.346;2023-05-18T00:26:49;11.82;;;3.03;;
24337;SDS011;12457;50.832;4.346;2023-05-18T00:29:14;12.35;;;3.20;;
24337;SDS011;12457;50.832;4.346;2023-05-18T00:31:40;10.80;;;2.63;;
24337;SDS011;12457;50.832;4.346;2023-05-18T00:34:08;15.13;;;3.13;;
24337;SDS011;12457;50.832;4.346;2023-05-18T00:36:35;13.88;;;3.38;;
24337;SDS011;12457;50.832;4.346;2023-05-18T00:39:04;11.38;;;3.10;;
24337;SDS011;12457;50.832;4.346;2023-05-18T00:41:31;12.02;;;2.90;;
24337;SDS011;12457;50.832;4.346;2023-05-18T00:43:59;12.13;;;3.67;;
24337;SDS011;12457;50.832;4.346;2023-05-18T00:46:25;14.25;;;3.22;;
24337;SDS011;12457;50.832;4.346;2023-05-18T00:48:52;19.65;;;3.53;;
24337;SDS011;12457;50.832;4.346;2023-05-18T00:51:21;15.45;;;3.15;;
24337;SDS011;12457;50.832;4.346;2023-05-18T00:53:48;8.32;;;3.17;;
24337;SDS011;12457;50.832;4.346;2023-05-18T00:56:15;11.00;;;2.80;;
24337;SDS011;12457;50.832;4.346;2023-05-18T00:58:41;10.07;;;2.83;;
24337;SDS011;12457;50.832;4.346;2023-05-18T01:01:08;12.73;;;3.17;;
24337;SDS011;12457;50.832;4.346;2023-05-18T01:03:38;11.40;;;3.03;;
24337;SDS011;12457;50.832;4.346;2023-05-18T01:06:05;11.57;;;2.92;;
24337;SDS011;12457;50.832;4.346;2023-05-18T01:08:31;10.82;;;3.20;;
24337;SDS011;12457;50.832;4.346;2023-05-18T01:13:46;9.82;;;3.13;;
24337;SDS011;12457;50.832;4.346;2023-05-18T01:16:24;10.93;;;3.03;;
24337;SDS011;12457;50.832;4.346;2023-05-18T01:19:00;14.68;;;3.50;;
24337;SDS011;12457;50.832;4.346;2023-05-18T01:27:39;12.70;;;3.25;;
24337;SDS011;12457;50.832;4.346;2023-05-18T01:30:12;8.77;;;3.28;;
24337;SDS011;12457;50.832;4.346;2023-05-18T01:32:41;15.35;;;4.18;;
24337;SDS011;12457;50.832;4.346;2023-05-18T01:35:07;17.38;;;3.30;;
24337;SDS011;12457;50.832;4.346;2023-05-18T01:37:33;14.23;;;3.63;;
24337;SDS011;12457;50.832;4.346;2023-05-18T01:39:59;12.20;;;3.30;;
24337;SDS011;12457;50.832;4.346;2023-05-18T01:42:25;10.82;;;3.28;;
24337;SDS011;12457;50.832;4.346;2023-05-18T01:44:57;14.25;;;3.10;;
24337;SDS011;12457;50.832;4.346;2023-05-18T01:47:29;8.15;;;2.85;;
24337;SDS011;12457;50.832;4.346;2023-05-18T01:50:01;9.65;;;3.20;;
24337;SDS011;12457;50.832;4.346;2023-05-18T01:53:07;15.73;;;3.28;;
24337;SDS011;12457;50.832;4.346;2023-05-18T01:55:32;17.60;;;3.28;;
24337;SDS011;12457;50.832;4.346;2023-05-18T01:58:00;11.55;;;3.08;;
24337;SDS011;12457;50.832;4.346;2023-05-18T02:00:27;8.95;;;2.92;;
24337;SDS011;12457;50.832;4.346;2023-05-18T02:02:53;14.13;;;3.30;;
24337;SDS011;12457;50.832;4.346;2023-05-18T02:05:18;9.70;;;3.55;;
24337;SDS011;12457;50.832;4.346;2023-05-18T02:07:44;12.48;;;3.25;;
24337;SDS011;12457;50.832;4.346;2023-05-18T02:10:11;11.73;;;3.53;;
24337;SDS011;12457;50.832;4.346;2023-05-18T02:12:37;16.83;;;3.80;;
24337;SDS011;12457;50.832;4.346;2023-05-18T02:15:03;15.02;;;3.35;;
24337;SDS011;12457;50.832;4.346;2023-05-18T02:17:32;11.45;;;3.65;;
24337;SDS011;12457;50.832;4.346;2023-05-18T02:20:02;15.15;;;3.33;;
24337;SDS011;12457;50.832;4.346;2023-05-18T02:22:33;11.35;;;3.25;;
24337;SDS011;12457;50.832;4.346;2023-05-18T02:24:59;13.07;;;3.30;;
24337;SDS011;12457;50.832;4.346;2023-05-18T02:27:26;13.82;;;3.75;;
24337;SDS011;12457;50.832;4.346;2023-05-18T02:29:52;10.10;;;3.60;;
24337;SDS011;12457;50.832;4.346;2023-05-18T02:32:19;10.43;;;3.47;;
24337;SDS011;12457;50.832;4.346;2023-05-18T02:34:45;14.35;;;3.70;;
24337;SDS011;12457;50.832;4.346;2023-05-18T02:37:11;13.13;;;3.58;;
24337;SDS011;12457;50.832;4.346;2023-05-18T02:39:38;20.38;;;4.35;;
24337;SDS011;12457;50.832;4.346;2023-05-18T02:42:05;13.90;;;3.47;;
24337;SDS011;12457;50.832;4.346;2023-05-18T02:44:31;12.18;;;3.67;;
24337;SDS011;12457;50.832;4.346;2023-05-18T02:46:57;11.40;;;3.70;;
24337;SDS011;12457;50.832;4.346;2023-05-18T02:49:24;14.13;;;3.65;;
24337;SDS011;12457;50.832;4.346;2023-05-18T02:51:50;14.52;;;4.05;;
24337;SDS011;12457;50.832;4.346;2023-05-18T02:54:15;13.38;;;4.10;;
24337;SDS011;12457;50.832;4.346;2023-05-18T02:56:41;10.68;;;3.83;;
24337;SDS011;12457;50.832;4.346;2023-05-18T02:59:07;13.23;;;4.03;;
24337;SDS011;12457;50.832;4.346;2023-05-18T03:01:33;20.08;;;4.53;;
24337;SDS011;12457;50.832;4.346;2023-05-18T03:04:02;16.30;;;4.10;;
24337;SDS011;12457;50.832;4.346;2023-05-18T03:06:28;8.82;;;3.90;;
24337;SDS011;12457;50.832;4.346;2023-05-18T03:08:55;12.02;;;4.00;;
24337;SDS011;12457;50.832;4.346;2023-05-18T03:11:21;16.45;;;4.85;;
24337;SDS011;12457;50.832;4.346;2023-05-18T03:13:47;10.77;;;3.88;;
24337;SDS011;12457;50.832;4.346;2023-05-18T03:16:14;13.48;;;4.35;;
24337;SDS011;12457;50.832;4.346;2023-05-18T03:18:40;23.33;;;4.78;;
24337;SDS011;12457;50.832;4.346;2023-05-18T03:21:10;13.07;;;4.43;;
24337;SDS011;12457;50.832;4.346;2023-05-18T03:23:37;19.75;;;4.57;;
24337;SDS011;12457;50.832;4.346;2023-05-18T03:26:03;6.30;;;3.95;;
24337;SDS011;12457;50.832;4.346;2023-05-18T03:28:36;13.45;;;3.95;;
24337;SDS011;12457;50.832;4.346;2023-05-18T03:31:03;17.35;;;4.43;;
24337;SDS011;12457;50.832;4.346;2023-05-18T03:33:28;13.20;;;4.10;;
24337;SDS011;12457;50.832;4.346;2023-05-18T03:35:57;9.30;;;4.15;;
24337;SDS011;12457;50.832;4.346;2023-05-18T03:41:49;10.20;;;4.18;;
24337;SDS011;12457;50.832;4.346;2023-05-18T03:44:15;10.88;;;3.80;;
24337;SDS011;12457;50.832;4.346;2023-05-18T03:46:42;9.63;;;4.30;;
24337;SDS011;12457;50.832;4.346;2023-05-18T03:49:07;16.95;;;5.05;;
24337;SDS011;12457;50.832;4.346;2023-05-18T03:51:33;12.57;;;4.25;;
24337;SDS011;12457;50.832;4.346;2023-05-18T03:53:59;16.00;;;4.32;;
24337;SDS011;12457;50.832;4.346;2023-05-18T03:56:26;11.50;;;3.97;;
24337;SDS011;12457;50.832;4.346;2023-05-18T03:58:55;10.95;;;4.57;;
24337;SDS011;12457;50.832;4.346;2023-05-18T04:01:23;13.48;;;4.10;;
24337;SDS011;12457;50.832;4.346;2023-05-18T04:03:49;11.27;;;4.53;;
24337;SDS011;12457;50.832;4.346;2023-05-18T04:06:15;11.82;;;4.68;;
24337;SDS011;12457;50.832;4.346;2023-05-18T04:08:53;14.32;;;4.50;;
24337;SDS011;12457;50.832;4.346;2023-05-18T04:11:19;10.18;;;4.38;;
24337;SDS011;12457;50.832;4.346;2023-05-18T04:13:46;14.60;;;4.55;;
24337;SDS011;12457;50.832;4.346;2023-05-18T04:16:14;12.32;;;4.70;;
24337;SDS011;12457;50.832;4.346;2023-05-18T04:18:40;14.27;;;4.70;;
24337;SDS011;12457;50.832;4.346;2023-05-18T04:21:07;13.88;;;4.85;;
24337;SDS011;12457;50.832;4.346;2023-05-18T04:26:28;15.07;;;4.78;;
24337;SDS011;12457;50.832;4.346;2023-05-18T04:28:55;16.70;;;4.80;;
24337;SDS011;12457;50.832;4.346;2023-05-18T04:31:24;12.10;;;4.28;;
24337;SDS011;12457;50.832;4.346;2023-05-18T04:33:51;14.65;;;4.63;;
24337;SDS011;12457;50.832;4.346;2023-05-18T04:36:19;13.25;;;4.90;;
24337;SDS011;12457;50.832;4.346;2023-05-18T04:38:52;22.55;;;5.78;;
24337;SDS011;12457;50.832;4.346;2023-05-18T04:41:22;8.43;;;4.03;;
24337;SDS011;12457;50.832;4.346;2023-05-18T04:43:51;13.65;;;4.30;;
24337;SDS011;12457;50.832;4.346;2023-05-18T04:46:20;11.27;;;4.38;;
24337;SDS011;12457;50.832;4.346;2023-05-18T04:48:46;13.63;;;4.65;;
24337;SDS011;12457;50.832;4.346;2023-05-18T04:51:14;14.05;;;4.53;;
24337;SDS011;12457;50.832;4.346;2023-05-18T04:57:05;10.15;;;4.28;;
24337;SDS011;12457;50.832;4.346;2023-05-18T04:59:31;18.38;;;4.72;;
24337;SDS011;12457;50.832;4.346;2023-05-18T05:02:02;13.15;;;5.18;;
24337;SDS011;12457;50.832;4.346;2023-05-18T05:04:31;15.77;;;4.85;;
24337;SDS011;12457;50.832;4.346;2023-05-18T05:06:57;15.00;;;5.00;;
24337;SDS011;12457;50.832;4.346;2023-05-18T05:09:23;13.85;;;5.13;;
24337;SDS011;12457;50.832;4.346;2023-05-18T05:11:49;13.65;;;4.80;;
24337;SDS011;12457;50.832;4.346;2023-05-18T05:14:14;14.40;;;4.25;;
24337;SDS011;12457;50.832;4.346;2023-05-18T05:16:41;12.65;;;4.53;;
24337;SDS011;12457;50.832;4.346;2023-05-18T05:19:08;7.55;;;4.07;;
24337;SDS011;12457;50.832;4.346;2023-05-18T05:21:34;12.55;;;4.15;;
24337;SDS011;12457;50.832;4.346;2023-05-18T05:24:00;13.70;;;4.68;;
24337;SDS011;12457;50.832;4.346;2023-05-18T05:26:28;15.95;;;4.40;;
24337;SDS011;12457;50.832;4.346;2023-05-18T05:28:54;12.68;;;4.65;;
24337;SDS011;12457;50.832;4.346;2023-05-18T05:31:20;17.27;;;4.93;;
24337;SDS011;12457;50.832;4.346;2023-05-18T05:33:46;14.88;;;4.85;;
24337;SDS011;12457;50.832;4.346;2023-05-18T05:36:12;13.70;;;4.53;;
24337;SDS011;12457;50.832;4.346;2023-05-18T05:38:37;15.63;;;5.00;;
24337;SDS011;12457;50.832;4.346;2023-05-18T05:41:03;15.68;;;4.53;;
24337;SDS011;12457;50.832;4.346;2023-05-18T05:43:29;13.95;;;5.10;;
24337;SDS011;12457;50.832;4.346;2023-05-18T05:45:54;11.45;;;4.75;;
24337;SDS011;12457;50.832;4.346;2023-05-18T05:48:20;12.55;;;4.55;;
24337;SDS011;12457;50.832;4.346;2023-05-18T05:50:46;15.27;;;4.93;;
24337;SDS011;12457;50.832;4.346;2023-05-18T05:53:21;20.67;;;5.32;;
24337;SDS011;12457;50.832;4.346;2023-05-18T05:55:47;17.80;;;6.18;;
24337;SDS011;12457;50.832;4.346;2023-05-18T05:58:13;14.73;;;4.70;;
24337;SDS011;12457;50.832;4.346;2023-05-18T06:00:40;12.75;;;4.80;;
24337;SDS011;12457;50.832;4.346;2023-05-18T06:03:07;12.82;;;5.25;;
24337;SDS011;12457;50.832;4.346;2023-05-18T06:05:33;13.90;;;4.65;;
24337;SDS011;12457;50.832;4.346;2023-05-18T06:08:00;15.43;;;5.28;;
24337;SDS011;12457;50.832;4.346;2023-05-18T06:10:25;15.55;;;5.25;;
24337;SDS011;12457;50.832;4.346;2023-05-18T06:12:51;12.90;;;4.65;;
24337;SDS011;12457;50.832;4.346;2023-05-18T06:15:17;13.65;;;4.97;;
24337;SDS011;12457;50.832;4.346;2023-05-18T06:17:43;13.85;;;5.47;;
24337;SDS011;12457;50.832;4.346;2023-05-18T06:20:09;12.70;;;4.70;;
24337;SDS011;12457;50.832;4.346;2023-05-18T06:22:36;19.90;;;5.00;;
24337;SDS011;12457;50.832;4.346;2023-05-18T06:25:17;14.95;;;5.10;;
24337;SDS011;12457;50.832;4.346;2023-05-18T06:27:42;16.52;;;6.30;;
24337;SDS011;12457;50.832;4.346;2023-05-18T06:30:10;12.70;;;4.40;;
24337;SDS011;12457;50.832;4.346;2023-05-18T06:32:36;15.98;;;4.43;;
24337;SDS011;12457;50.832;4.346;2023-05-18T06:35:03;14.23;;;4.65;;
24337;SDS011;12457;50.832;4.346;2023-05-18T06:37:29;13.68;;;5.32;;
24337;SDS011;12457;50.832;4.346;2023-05-18T06:39:55;19.85;;;5.70;;
24337;SDS011;12457;50.832;4.346;2023-05-18T06:42:21;13.38;;;4.82;;
24337;SDS011;12457;50.832;4.346;2023-05-18T06:44:46;19.75;;;5.18;;
24337;SDS011;12457;50.832;4.346;2023-05-18T06:47:14;14.30;;;4.45;;
24337;SDS011;12457;50.832;4.346;2023-05-18T06:49:41;23.80;;;5.28;;
24337;SDS011;12457;50.832;4.346;2023-05-18T06:52:07;17.27;;;5.18;;
24337;SDS011;12457;50.832;4.346;2023-05-18T06:54:35;15.38;;;5.18;;
24337;SDS011;12457;50.832;4.346;2023-05-18T06:57:02;12.95;;;4.43;;
24337;SDS011;12457;50.832;4.346;2023-05-18T06:59:28;14.05;;;5.00;;
24337;SDS011;12457;50.832;4.346;2023-05-18T07:01:53;13.32;;;4.70;;
24337;SDS011;12457;50.832;4.346;2023-05-18T07:04:19;15.70;;;5.05;;
24337;SDS011;12457;50.832;4.346;2023-05-18T07:06:46;19.60;;;5.22;;
24337;SDS011;12457;50.832;4.346;2023-05-18T07:09:13;16.27;;;5.03;;
24337;SDS011;12457;50.832;4.346;2023-05-18T07:11:39;8.88;;;4.93;;
24337;SDS011;12457;50.832;4.346;2023-05-18T07:14:05;13.07;;;4.63;;
24337;SDS011;12457;50.832;4.346;2023-05-18T07:16:33;9.45;;;4.93;;
24337;SDS011;12457;50.832;4.346;2023-05-18T07:18:59;8.75;;;4.28;;
24337;SDS011;12457;50.832;4.346;2023-05-18T07:21:25;15.52;;;4.57;;
24337;SDS011;12457;50.832;4.346;2023-05-18T07:23:50;19.70;;;4.93;;
24337;SDS011;12457;50.832;4.346;2023-05-18T07:26:17;14.85;;;5.40;;
24337;SDS011;12457;50.832;4.346;2023-05-18T07:28:46;17.00;;;4.82;;
24337;SDS011;12457;50.832;4.346;2023-05-18T07:31:13;15.27;;;4.80;;
24337;SDS011;12457;50.832;4.346;2023-05-18T07:33:40;16.92;;;4.93;;
24337;SDS011;12457;50.832;4.346;2023-05-18T07:36:07;13.10;;;5.00;;
24337;SDS011;12457;50.832;4.346;2023-05-18T07:38:37;9.88;;;4.28;;
24337;SDS011;12457;50.832;4.346;2023-05-18T07:41:03;11.85;;;4.63;;
24337;SDS011;12457;50.832;4.346;2023-05-18T07:43:29;8.38;;;4.10;;
24337;SDS011;12457;50.832;4.346;2023-05-18T07:45:55;12.90;;;4.88;;
24337;SDS011;12457;50.832;4.346;2023-05-18T07:48:20;13.40;;;5.28;;
24337;SDS011;12457;50.832;4.346;2023-05-18T07:50:46;13.57;;;4.68;;
24337;SDS011;12457;50.832;4.346;2023-05-18T07:53:12;14.60;;;5.57;;
24337;SDS011;12457;50.832;4.346;2023-05-18T07:55:53;10.13;;;4.60;;
24337;SDS011;12457;50.832;4.346;2023-05-18T07:58:19;14.50;;;5.35;;
24337;SDS011;12457;50.832;4.346;2023-05-18T08:00:45;16.05;;;5.50;;
24337;SDS011;12457;50.832;4.346;2023-05-18T08:03:10;12.45;;;5.20;;
24337;SDS011;12457;50.832;4.346;2023-05-18T08:05:36;12.32;;;4.97;;
24337;SDS011;12457;50.832;4.346;2023-05-18T08:08:02;17.38;;;5.40;;
24337;SDS011;12457;50.832;4.346;2023-05-18T08:10:28;15.25;;;5.90;;
24337;SDS011;12457;50.832;4.346;2023-05-18T08:12:53;18.73;;;5.30;;
24337;SDS011;12457;50.832;4.346;2023-05-18T08:15:20;13.88;;;5.35;;
24337;SDS011;12457;50.832;4.346;2023-05-18T08:17:45;15.35;;;5.15;;
24337;SDS011;12457;50.832;4.346;2023-05-18T08:20:12;14.40;;;6.07;;
24337;SDS011;12457;50.832;4.346;2023-05-18T08:22:38;13.23;;;5.43;;
24337;SDS011;12457;50.832;4.346;2023-05-18T08:25:04;16.42;;;5.45;;
24337;SDS011;12457;50.832;4.346;2023-05-18T08:27:34;18.60;;;5.40;;
24337;SDS011;12457;50.832;4.346;2023-05-18T08:29:59;15.23;;;6.40;;
24337;SDS011;12457;50.832;4.346;2023-05-18T08:32:25;13.43;;;5.38;;
24337;SDS011;12457;50.832;4.346;2023-05-18T08:34:51;13.82;;;5.50;;
24337;SDS011;12457;50.832;4.346;2023-05-18T08:37:18;15.57;;;5.93;;
24337;SDS011;12457;50.832;4.346;2023-05-18T08:43:02;14.80;;;6.10;;
24337;SDS011;12457;50.832;4.346;2023-05-18T08:48:06;12.88;;;5.05;;
24337;SDS011;12457;50.832;4.346;2023-05-18T08:50:34;14.07;;;6.00;;
24337;SDS011;12457;50.832;4.346;2023-05-18T08:53:03;16.38;;;5.07;;
24337;SDS011;12457;50.832;4.346;2023-05-18T08:55:30;15.10;;;5.60;;
24337;SDS011;12457;50.832;4.346;2023-05-18T08:58:00;12.32;;;5.90;;
24337;SDS011;12457;50.832;4.346;2023-05-18T09:00:27;20.08;;;5.88;;
24337;SDS011;12457;50.832;4.346;2023-05-18T09:02:56;14.35;;;4.90;;
24337;SDS011;12457;50.832;4.346;2023-05-18T09:05:22;13.23;;;4.90;;
24337;SDS011;12457;50.832;4.346;2023-05-18T09:07:48;12.75;;;6.38;;
24337;SDS011;12457;50.832;4.346;2023-05-18T09:10:21;14.40;;;5.72;;
24337;SDS011;12457;50.832;4.346;2023-05-18T09:12:50;14.05;;;5.78;;
24337;SDS011;12457;50.832;4.346;2023-05-18T09:15:18;13.65;;;4.95;;
24337;SDS011;12457;50.832;4.346;2023-05-18T09:17:45;11.23;;;5.68;;
24337;SDS011;12457;50.832;4.346;2023-05-18T09:20:11;12.75;;;5.82;;
24337;SDS011;12457;50.832;4.346;2023-05-18T09:22:37;14.40;;;5.53;;
24337;SDS011;12457;50.832;4.346;2023-05-18T09:25:07;11.70;;;4.70;;
24337;SDS011;12457;50.832;4.346;2023-05-18T09:27:33;14.23;;;5.05;;
24337;SDS011;12457;50.832;4.346;2023-05-18T09:29:59;13.40;;;4.65;;
24337;SDS011;12457;50.832;4.346;2023-05-18T09:32:25;13.02;;;4.18;;
24337;SDS011;12457;50.832;4.346;2023-05-18T09:34:51;12.43;;;4.47;;
24337;SDS011;12457;50.832;4.346;2023-05-18T09:37:18;8.93;;;3.85;;
24337;SDS011;12457;50.832;4.346;2023-05-18T09:39:45;14.05;;;4.90;;
24337;SDS011;12457;50.832;4.346;2023-05-18T09:42:28;19.10;;;4.32;;
24337;SDS011;12457;50.832;4.346;2023-05-18T09:45:13;10.45;;;3.88;;
24337;SDS011;12457;50.832;4.346;2023-05-18T09:47:40;14.93;;;4.30;;
24337;SDS011;12457;50.832;4.346;2023-05-18T09:50:06;9.30;;;4.30;;
24337;SDS011;12457;50.832;4.346;2023-05-18T09:52:45;11.80;;;3.25;;
24337;SDS011;12457;50.832;4.346;2023-05-18T09:55:24;11.43;;;2.72;;
24337;SDS011;12457;50.832;4.346;2023-05-18T09:57:50;12.82;;;3.05;;
24337;SDS011;12457;50.832;4.346;2023-05-18T10:00:17;11.43;;;2.67;;
24337;SDS011;12457;50.832;4.346;2023-05-18T10:02:44;12.95;;;3.60;;
24337;SDS011;12457;50.832;4.346;2023-05-18T10:05:20;12.70;;;3.22;;
24337;SDS011;12457;50.832;4.346;2023-05-18T10:07:51;9.35;;;3.38;;
24337;SDS011;12457;50.832;4.346;2023-05-18T10:10:19;12.63;;;3.78;;
24337;SDS011;12457;50.832;4.346;2023-05-18T10:12:54;12.73;;;4.10;;
24337;SDS011;12457;50.832;4.346;2023-05-18T10:15:22;13.37;;;3.53;;
24337;SDS011;12457;50.832;4.346;2023-05-18T10:17:54;11.98;;;4.20;;
24337;SDS011;12457;50.832;4.346;2023-05-18T10:20:23;11.18;;;4.68;;
24337;SDS011;12457;50.832;4.346;2023-05-18T10:22:53;12.68;;;5.13;;
24337;SDS011;12457;50.832;4.346;2023-05-18T10:25:21;10.00;;;4.03;;
24337;SDS011;12457;50.832;4.346;2023-05-18T10:27:50;10.02;;;4.63;;
24337;SDS011;12457;50.832;4.346;2023-05-18T10:30:22;17.88;;;5.20;;
24337;SDS011;12457;50.832;4.346;2023-05-18T10:32:48;10.30;;;4.05;;
24337;SDS011;12457;50.832;4.346;2023-05-18T10:35:15;9.93;;;4.60;;
24337;SDS011;12457;50.832;4.346;2023-05-18T10:37:42;12.45;;;4.53;;
24337;SDS011;12457;50.832;4.346;2023-05-18T10:40:17;9.98;;;4.82;;
24337;SDS011;12457;50.832;4.346;2023-05-18T10:42:44;9.50;;;3.63;;
24337;SDS011;12457;50.832;4.346;2023-05-18T10:45:11;11.35;;;4.40;;
24337;SDS011;12457;50.832;4.346;2023-05-18T10:47:38;12.73;;;3.78;;
24337;SDS011;12457;50.832;4.346;2023-05-18T10:50:07;9.43;;;4.45;;
24337;SDS011;12457;50.832;4.346;2023-05-18T10:52:36;11.32;;;3.42;;
24337;SDS011;12457;50.832;4.346;2023-05-18T10:55:02;10.77;;;4.60;;
24337;SDS011;12457;50.832;4.346;2023-05-18T10:57:49;12.43;;;4.53;;
24337;SDS011;12457;50.832;4.346;2023-05-18T11:00:21;17.00;;;4.50;;
24337;SDS011;12457;50.832;4.346;2023-05-18T11:02:47;10.57;;;3.92;;
24337;SDS011;12457;50.832;4.346;2023-05-18T11:05:15;15.13;;;3.42;;
24337;SDS011;12457;50.832;4.346;2023-05-18T11:07:48;17.63;;;5.23;;
24337;SDS011;12457;50.832;4.346;2023-05-18T11:10:23;9.52;;;3.65;;
24337;SDS011;12457;50.832;4.346;2023-05-18T11:12:59;8.82;;;3.55;;
24337;SDS011;12457;50.832;4.346;2023-05-18T11:18:31;12.02;;;3.60;;
24337;SDS011;12457;50.832;4.346;2023-05-18T11:20:58;13.38;;;4.30;;
24337;SDS011;12457;50.832;4.346;2023-05-18T11:23:25;7.85;;;3.88;;
24337;SDS011;12457;50.832;4.346;2023-05-18T11:26:02;11.73;;;3.78;;
24337;SDS011;12457;50.832;4.346;2023-05-18T11:28:28;11.98;;;4.47;;
24337;SDS011;12457;50.832;4.346;2023-05-18T11:30:55;14.90;;;5.00;;
24337;SDS011;12457;50.832;4.346;2023-05-18T11:33:27;12.18;;;3.85;;
24337;SDS011;12457;50.832;4.346;2023-05-18T11:38:54;9.65;;;4.13;;
24337;SDS011;12457;50.832;4.346;2023-05-18T11:41:35;11.02;;;4.88;;
24337;SDS011;12457;50.832;4.346;2023-05-18T11:46:39;13.18;;;4.82;;
24337;SDS011;12457;50.832;4.346;2023-05-18T11:52:26;12.88;;;4.35;;
24337;SDS011;12457;50.832;4.346;2023-05-18T11:54:54;12.32;;;4.18;;
24337;SDS011;12457;50.832;4.346;2023-05-18T11:57:24;16.48;;;4.25;;
24337;SDS011;12457;50.832;4.346;2023-05-18T11:59:54;14.13;;;4.10;;
24337;SDS011;12457;50.832;4.346;2023-05-18T12:02:25;9.38;;;4.10;;
24337;SDS011;12457;50.832;4.346;2023-05-18T12:04:55;13.52;;;4.47;;
24337;SDS011;12457;50.832;4.346;2023-05-18T12:07:24;14.35;;;4.10;;
24337;SDS011;12457;50.832;4.346;2023-05-18T12:09:52;12.13;;;4.00;;
24337;SDS011;12457;50.832;4.346;2023-05-18T12:15:21;13.07;;;3.83;;
24337;SDS011;12457;50.832;4.346;2023-05-18T12:17:48;8.90;;;3.97;;
24337;SDS011;12457;50.832;4.346;2023-05-18T12:20:18;14.05;;;3.55;;
24337;SDS011;12457;50.832;4.346;2023-05-18T12:22:46;10.43;;;3.83;;
24337;SDS011;12457;50.832;4.346;2023-05-18T12:25:17;10.48;;;3.50;;
24337;SDS011;12457;50.832;4.346;2023-05-18T12:27:47;10.93;;;4.00;;
24337;SDS011;12457;50.832;4.346;2023-05-18T12:32:43;9.13;;;4.55;;
24337;SDS011;12457;50.832;4.346;2023-05-18T12:35:11;11.32;;;4.10;;
24337;SDS011;12457;50.832;4.346;2023-05-18T12:37:42;12.95;;;4.22;;
24337;SDS011;12457;50.832;4.346;2023-05-18T12:40:11;10.10;;;4.20;;
24337;SDS011;12457;50.832;4.346;2023-05-18T12:45:43;9.15;;;4.20;;
24337;SDS011;12457;50.832;4.346;2023-05-18T12:48:09;13.10;;;4.38;;
24337;SDS011;12457;50.832;4.346;2023-05-18T12:50:45;9.55;;;4.30;;
24337;SDS011;12457;50.832;4.346;2023-05-18T12:53:12;13.93;;;4.93;;
24337;SDS011;12457;50.832;4.346;2023-05-18T12:55:39;12.48;;;4.53;;
24337;SDS011;12457;50.832;4.346;2023-05-18T12:58:14;13.27;;;4.55;;
24337;SDS011;12457;50.832;4.346;2023-05-18T13:00:42;12.55;;;4.80;;
24337;SDS011;12457;50.832;4.346;2023-05-18T13:03:11;9.27;;;4.57;;
24337;SDS011;12457;50.832;4.346;2023-05-18T13:05:40;18.25;;;4.90;;
24337;SDS011;12457;50.832;4.346;2023-05-18T13:08:12;9.68;;;4.20;;
24337;SDS011;12457;50.832;4.346;2023-05-18T13:10:39;15.77;;;4.72;;
24337;SDS011;12457;50.832;4.346;2023-05-18T13:13:08;6.90;;;4.22;;
24337;SDS011;12457;50.832;4.346;2023-05-18T13:15:37;13.85;;;4.15;;
24337;SDS011;12457;50.832;4.346;2023-05-18T13:23:10;12.82;;;4.45;;
24337;SDS011;12457;50.832;4.346;2023-05-18T13:25:38;10.65;;;4.50;;
24337;SDS011;12457;50.832;4.346;2023-05-18T13:28:08;11.45;;;4.05;;
24337;SDS011;12457;50.832;4.346;2023-05-18T13:30:37;9.45;;;4.15;;
24337;SDS011;12457;50.832;4.346;2023-05-18T13:33:05;9.50;;;4.40;;
24337;SDS011;12457;50.832;4.346;2023-05-18T13:35:38;9.95;;;4.38;;
24337;SDS011;12457;50.832;4.346;2023-05-18T13:38:06;19.42;;;7.68;;
24337;SDS011;12457;50.832;4.346;2023-05-18T13:40:36;16.13;;;5.47;;
24337;SDS011;12457;50.832;4.346;2023-05-18T13:43:02;13.48;;;4.78;;
24337;SDS011;12457;50.832;4.346;2023-05-18T13:45:30;13.93;;;4.07;;
24337;SDS011;12457;50.832;4.346;2023-05-18T13:47:56;14.43;;;5.10;;
24337;SDS011;12457;50.832;4.346;2023-05-18T13:50:23;12.45;;;4.20;;
24337;SDS011;12457;50.832;4.346;2023-05-18T13:52:51;8.10;;;4.32;;
24337;SDS011;12457;50.832;4.346;2023-05-18T13:55:18;8.48;;;4.18;;
24337;SDS011;12457;50.832;4.346;2023-05-18T13:57:56;10.70;;;4.47;;
24337;SDS011;12457;50.832;4.346;2023-05-18T14:00:22;22.52;;;4.53;;
24337;SDS011;12457;50.832;4.346;2023-05-18T14:02:47;12.30;;;4.68;;
24337;SDS011;12457;50.832;4.346;2023-05-18T14:05:13;11.90;;;4.53;;
24337;SDS011;12457;50.832;4.346;2023-05-18T14:07:40;19.02;;;3.97;;
24337;SDS011;12457;50.832;4.346;2023-05-18T14:10:07;7.82;;;3.17;;
24337;SDS011;12457;50.832;4.346;2023-05-18T14:12:34;9.43;;;3.85;;
24337;SDS011;12457;50.832;4.346;2023-05-18T14:15:00;11.75;;;4.07;;
24337;SDS011;12457;50.832;4.346;2023-05-18T14:17:28;12.55;;;4.00;;
24337;SDS011;12457;50.832;4.346;2023-05-18T14:19:54;12.85;;;4.10;;
24337;SDS011;12457;50.832;4.346;2023-05-18T14:22:25;7.80;;;3.88;;
24337;SDS011;12457;50.832;4.346;2023-05-18T14:24:51;10.85;;;3.55;;
24337;SDS011;12457;50.832;4.346;2023-05-18T14:27:17;9.82;;;3.80;;
24337;SDS011;12457;50.832;4.346;2023-05-18T14:29:47;13.98;;;4.85;;
24337;SDS011;12457;50.832;4.346;2023-05-18T14:32:14;12.85;;;4.45;;
24337;SDS011;12457;50.832;4.346;2023-05-18T14:34:40;10.10;;;3.83;;
24337;SDS011;12457;50.832;4.346;2023-05-18T14:37:06;13.68;;;3.58;;
24337;SDS011;12457;50.832;4.346;2023-05-18T14:39:32;14.35;;;3.90;;
24337;SDS011;12457;50.832;4.346;2023-05-18T14:41:58;8.98;;;3.97;;
24337;SDS011;12457;50.832;4.346;2023-05-18T14:44:24;20.02;;;4.15;;
24337;SDS011;12457;50.832;4.346;2023-05-18T14:46:50;14.45;;;4.38;;
24337;SDS011;12457;50.832;4.346;2023-05-18T14:49:16;8.68;;;3.60;;
24337;SDS011;12457;50.832;4.346;2023-05-18T14:51:43;9.93;;;3.67;;
24337;SDS011;12457;50.832;4.346;2023-05-18T14:54:08;7.85;;;3.80;;
24337;SDS011;12457;50.832;4.346;2023-05-18T14:56:34;9.63;;;3.60;;
24337;SDS011;12457;50.832;4.346;2023-05-18T14:59:00;11.02;;;4.10;;
24337;SDS011;12457;50.832;4.346;2023-05-18T15:01:26;11.85;;;3.70;;
24337;SDS011;12457;50.832;4.346;2023-05-18T15:03:52;10.85;;;3.88;;
24337;SDS011;12457;50.832;4.346;2023-05-18T15:06:19;9.27;;;3.67;;
24337;SDS011;12457;50.832;4.346;2023-05-18T15:08:45;8.95;;;3.70;;
24337;SDS011;12457;50.832;4.346;2023-05-18T15:11:10;12.00;;;4.70;;
24337;SDS011;12457;50.832;4.346;2023-05-18T15:16:31;13.48;;;4.13;;
24337;SDS011;12457;50.832;4.346;2023-05-18T15:18:57;13.93;;;4.07;;
24337;SDS011;12457;50.832;4.346;2023-05-18T15:21:22;10.52;;;3.80;;
24337;SDS011;12457;50.832;4.346;2023-05-18T15:23:48;11.60;;;4.35;;
24337;SDS011;12457;50.832;4.346;2023-05-18T15:26:14;13.55;;;3.95;;
24337;SDS011;12457;50.832;4.346;2023-05-18T15:28:42;10.23;;;4.20;;
24337;SDS011;12457;50.832;4.346;2023-05-18T15:31:09;7.57;;;3.75;;
24337;SDS011;12457;50.832;4.346;2023-05-18T15:33:34;15.50;;;3.88;;